sensor_id;sensor_type;location;lat;lon;timestamp;P1;durP1;ratioP1;P2;durP2;ratioP2
32790;SDS011;19143;59.322;14.502;2023-07-13T00:00:56;7.93;;;4.60;;
32790;SDS011;19143;59.322;14.502;2023-07-13T00:03:36;10.40;;;4.43;;
32790;SDS011;19143;59.322;14.502;2023-07-13T00:06:06;9.17;;;3.90;;
32790;SDS011;19143;59.322;14.502;2023-07-13T00:08:57;10.00;;;4.10;;
32790;SDS011;19143;59.322;14.502;2023-07-13T00:11:24;7.20;;;4.03;;
32790;SDS011;19143;59.322;14.502;2023-07-13T00:13:51;9.30;;;4.50;;
32790;SDS011;19143;59.322;14.502;2023-07-13T00:16:32;12.30;;;4.67;;
32790;SDS011;19143;59.322;14.502;2023-07-13T00:19:13;7.53;;;3.57;;
32790;SDS011;19143;59.322;14.502;2023-07-13T00:21:54;6.97;;;3.63;;
32790;SDS011;19143;59.322;14.502;2023-07-13T00:24:38;8.73;;;3.97;;
32790;SDS011;19143;59.322;14.502;2023-07-13T00:27:10;5.60;;;3.90;;
32790;SDS011;19143;59.322;14.502;2023-07-13T00:29:38;5.93;;;3.60;;
32790;SDS011;19143;59.322;14.502;2023-07-13T00:32:06;7.57;;;3.80;;
32790;SDS011;19143;59.322;14.502;2023-07-13T00:34:38;7.70;;;3.87;;
32790;SDS011;19143;59.322;14.502;2023-07-13T00:37:09;9.60;;;3.27;;
32790;SDS011;19143;59.322;14.502;2023-07-13T00:39:51;9.10;;;3.90;;
32790;SDS011;19143;59.322;14.502;2023-07-13T00:42:32;9.33;;;3.60;;
32790;SDS011;19143;59.322;14.502;2023-07-13T00:45:06;6.33;;;3.50;;
32790;SDS011;19143;59.322;14.502;2023-07-13T00:47:45;5.87;;;3.20;;
32790;SDS011;19143;59.322;14.502;2023-07-13T00:50:14;4.10;;;3.70;;
32790;SDS011;19143;59.322;14.502;2023-07-13T00:52:52;11.43;;;3.77;;
32790;SDS011;19143;59.322;14.502;2023-07-13T00:55:24;8.90;;;3.43;;
32790;SDS011;19143;59.322;14.502;2023-07-13T00:57:51;3.50;;;3.20;;
32790;SDS011;19143;59.322;14.502;2023-07-13T01:00:19;9.43;;;3.27;;
32790;SDS011;19143;59.322;14.502;2023-07-13T01:02:51;6.27;;;3.30;;
32790;SDS011;19143;59.322;14.502;2023-07-13T01:05:18;5.77;;;3.27;;
32790;SDS011;19143;59.322;14.502;2023-07-13T01:07:46;12.73;;;3.67;;
32790;SDS011;19143;59.322;14.502;2023-07-13T01:10:15;6.80;;;3.07;;
32790;SDS011;19143;59.322;14.502;2023-07-13T01:12:43;4.57;;;3.10;;
32790;SDS011;19143;59.322;14.502;2023-07-13T01:17:51;3.37;;;3.17;;
32790;SDS011;19143;59.322;14.502;2023-07-13T01:20:18;11.23;;;3.17;;
32790;SDS011;19143;59.322;14.502;2023-07-13T01:25:37;7.00;;;3.00;;
32790;SDS011;19143;59.322;14.502;2023-07-13T01:28:04;8.67;;;3.00;;
32790;SDS011;19143;59.322;14.502;2023-07-13T01:30:31;4.53;;;3.23;;
32790;SDS011;19143;59.322;14.502;2023-07-13T01:33:12;14.10;;;3.00;;
32790;SDS011;19143;59.322;14.502;2023-07-13T01:35:43;4.27;;;2.90;;
32790;SDS011;19143;59.322;14.502;2023-07-13T01:38:11;6.93;;;3.10;;
32790;SDS011;19143;59.322;14.502;2023-07-13T01:40:43;3.80;;;2.83;;
32790;SDS011;19143;59.322;14.502;2023-07-13T01:43:10;6.83;;;3.07;;
32790;SDS011;19143;59.322;14.502;2023-07-13T01:45:38;4.93;;;2.50;;
32790;SDS011;19143;59.322;14.502;2023-07-13T01:48:18;6.13;;;3.10;;
32790;SDS011;19143;59.322;14.502;2023-07-13T01:50:58;14.53;;;3.30;;
32790;SDS011;19143;59.322;14.502;2023-07-13T01:53:30;6.73;;;2.70;;
32790;SDS011;19143;59.322;14.502;2023-07-13T01:55:58;6.50;;;3.27;;
32790;SDS011;19143;59.322;14.502;2023-07-13T01:58:25;6.53;;;2.90;;
32790;SDS011;19143;59.322;14.502;2023-07-13T02:00:55;12.13;;;3.17;;
32790;SDS011;19143;59.322;14.502;2023-07-13T02:03:35;8.77;;;2.77;;
32790;SDS011;19143;59.322;14.502;2023-07-13T02:06:03;5.17;;;2.50;;
32790;SDS011;19143;59.322;14.502;2023-07-13T02:08:43;10.97;;;2.60;;
32790;SDS011;19143;59.322;14.502;2023-07-13T02:11:13;11.97;;;2.77;;
32790;SDS011;19143;59.322;14.502;2023-07-13T02:13:40;7.30;;;2.47;;
32790;SDS011;19143;59.322;14.502;2023-07-13T02:16:07;7.93;;;2.47;;
32790;SDS011;19143;59.322;14.502;2023-07-13T02:18:33;11.90;;;3.03;;
32790;SDS011;19143;59.322;14.502;2023-07-13T02:21:01;3.83;;;2.30;;
32790;SDS011;19143;59.322;14.502;2023-07-13T02:23:41;9.73;;;2.47;;
32790;SDS011;19143;59.322;14.502;2023-07-13T02:26:22;4.10;;;2.50;;
32790;SDS011;19143;59.322;14.502;2023-07-13T02:28:49;8.97;;;2.70;;
32790;SDS011;19143;59.322;14.502;2023-07-13T02:31:15;9.50;;;2.77;;
32790;SDS011;19143;59.322;14.502;2023-07-13T02:33:42;3.80;;;2.30;;
32790;SDS011;19143;59.322;14.502;2023-07-13T02:36:09;7.10;;;2.87;;
32790;SDS011;19143;59.322;14.502;2023-07-13T02:38:36;10.73;;;2.60;;
32790;SDS011;19143;59.322;14.502;2023-07-13T02:41:03;6.27;;;2.60;;
32790;SDS011;19143;59.322;14.502;2023-07-13T02:43:32;5.90;;;2.50;;
32790;SDS011;19143;59.322;14.502;2023-07-13T02:45:58;6.37;;;3.07;;
32790;SDS011;19143;59.322;14.502;2023-07-13T02:48:29;6.03;;;2.40;;
32790;SDS011;19143;59.322;14.502;2023-07-13T02:50:55;10.93;;;2.70;;
32790;SDS011;19143;59.322;14.502;2023-07-13T02:53:22;8.00;;;2.77;;
32790;SDS011;19143;59.322;14.502;2023-07-13T02:55:49;9.63;;;3.03;;
32790;SDS011;19143;59.322;14.502;2023-07-13T02:58:16;8.87;;;2.40;;
32790;SDS011;19143;59.322;14.502;2023-07-13T03:00:46;13.07;;;2.80;;
32790;SDS011;19143;59.322;14.502;2023-07-13T03:03:13;11.70;;;3.07;;
32790;SDS011;19143;59.322;14.502;2023-07-13T03:05:40;4.53;;;2.60;;
32790;SDS011;19143;59.322;14.502;2023-07-13T03:08:10;6.53;;;2.40;;
32790;SDS011;19143;59.322;14.502;2023-07-13T03:10:38;2.60;;;2.33;;
32790;SDS011;19143;59.322;14.502;2023-07-13T03:13:07;9.93;;;2.63;;
32790;SDS011;19143;59.322;14.502;2023-07-13T03:15:34;9.33;;;2.80;;
32790;SDS011;19143;59.322;14.502;2023-07-13T03:18:07;7.40;;;2.40;;
32790;SDS011;19143;59.322;14.502;2023-07-13T03:20:49;6.23;;;2.93;;
32790;SDS011;19143;59.322;14.502;2023-07-13T03:23:30;6.13;;;2.70;;
32790;SDS011;19143;59.322;14.502;2023-07-13T03:26:11;13.07;;;2.60;;
32790;SDS011;19143;59.322;14.502;2023-07-13T03:28:41;12.40;;;2.77;;
32790;SDS011;19143;59.322;14.502;2023-07-13T03:31:23;9.63;;;2.57;;
32790;SDS011;19143;59.322;14.502;2023-07-13T03:45:20;5.67;;;2.60;;
32790;SDS011;19143;59.322;14.502;2023-07-13T03:47:47;5.60;;;2.43;;
32790;SDS011;19143;59.322;14.502;2023-07-13T03:50:13;8.60;;;2.73;;
32790;SDS011;19143;59.322;14.502;2023-07-13T03:52:41;6.67;;;2.57;;
32790;SDS011;19143;59.322;14.502;2023-07-13T03:55:10;10.97;;;2.70;;
32790;SDS011;19143;59.322;14.502;2023-07-13T03:57:36;8.83;;;2.60;;
32790;SDS011;19143;59.322;14.502;2023-07-13T04:00:03;9.37;;;2.27;;
32790;SDS011;19143;59.322;14.502;2023-07-13T04:02:32;10.83;;;2.83;;
32790;SDS011;19143;59.322;14.502;2023-07-13T04:04:59;6.50;;;2.43;;
32790;SDS011;19143;59.322;14.502;2023-07-13T04:07:26;6.47;;;2.33;;
32790;SDS011;19143;59.322;14.502;2023-07-13T04:09:52;12.50;;;3.00;;
32790;SDS011;19143;59.322;14.502;2023-07-13T04:12:19;5.10;;;2.20;;
32790;SDS011;19143;59.322;14.502;2023-07-13T04:14:47;6.83;;;2.23;;
32790;SDS011;19143;59.322;14.502;2023-07-13T04:17:13;10.47;;;2.53;;
32790;SDS011;19143;59.322;14.502;2023-07-13T04:19:43;7.07;;;2.37;;
32790;SDS011;19143;59.322;14.502;2023-07-13T04:22:09;3.40;;;2.30;;
32790;SDS011;19143;59.322;14.502;2023-07-13T04:24:36;10.27;;;2.40;;
32790;SDS011;19143;59.322;14.502;2023-07-13T04:27:03;5.57;;;2.30;;
32790;SDS011;19143;59.322;14.502;2023-07-13T04:29:30;7.33;;;3.30;;
32790;SDS011;19143;59.322;14.502;2023-07-13T04:31:57;4.63;;;2.20;;
32790;SDS011;19143;59.322;14.502;2023-07-13T04:34:23;4.37;;;2.23;;
32790;SDS011;19143;59.322;14.502;2023-07-13T04:36:52;8.60;;;2.50;;
32790;SDS011;19143;59.322;14.502;2023-07-13T04:39:19;8.03;;;2.40;;
32790;SDS011;19143;59.322;14.502;2023-07-13T04:41:45;6.77;;;2.10;;
32790;SDS011;19143;59.322;14.502;2023-07-13T04:44:12;5.47;;;1.90;;
32790;SDS011;19143;59.322;14.502;2023-07-13T04:46:39;9.43;;;2.37;;
32790;SDS011;19143;59.322;14.502;2023-07-13T04:49:06;10.93;;;2.67;;
32790;SDS011;19143;59.322;14.502;2023-07-13T04:51:33;7.33;;;2.63;;
32790;SDS011;19143;59.322;14.502;2023-07-13T04:54:01;9.03;;;2.60;;
32790;SDS011;19143;59.322;14.502;2023-07-13T04:56:27;8.23;;;2.97;;
32790;SDS011;19143;59.322;14.502;2023-07-13T04:58:55;13.80;;;3.23;;
32790;SDS011;19143;59.322;14.502;2023-07-13T05:01:23;13.90;;;3.23;;
32790;SDS011;19143;59.322;14.502;2023-07-13T05:03:50;10.50;;;2.80;;
32790;SDS011;19143;59.322;14.502;2023-07-13T05:06:16;9.70;;;2.77;;
32790;SDS011;19143;59.322;14.502;2023-07-13T05:08:43;7.73;;;2.97;;
32790;SDS011;19143;59.322;14.502;2023-07-13T05:11:11;5.17;;;2.97;;
32790;SDS011;19143;59.322;14.502;2023-07-13T05:13:38;8.87;;;3.00;;
32790;SDS011;19143;59.322;14.502;2023-07-13T05:16:05;10.93;;;2.90;;
32790;SDS011;19143;59.322;14.502;2023-07-13T05:18:32;10.00;;;2.80;;
32790;SDS011;19143;59.322;14.502;2023-07-13T05:21:00;12.33;;;2.83;;
32790;SDS011;19143;59.322;14.502;2023-07-13T05:23:27;8.07;;;2.70;;
32790;SDS011;19143;59.322;14.502;2023-07-13T05:25:54;9.23;;;2.80;;
32790;SDS011;19143;59.322;14.502;2023-07-13T05:28:23;13.27;;;2.70;;
32790;SDS011;19143;59.322;14.502;2023-07-13T05:30:49;8.07;;;2.47;;
32790;SDS011;19143;59.322;14.502;2023-07-13T05:33:17;8.67;;;2.80;;
32790;SDS011;19143;59.322;14.502;2023-07-13T05:35:43;9.43;;;2.60;;
32790;SDS011;19143;59.322;14.502;2023-07-13T05:38:10;5.20;;;2.13;;
32790;SDS011;19143;59.322;14.502;2023-07-13T05:40:37;3.70;;;2.03;;
32790;SDS011;19143;59.322;14.502;2023-07-13T05:43:04;6.67;;;2.43;;
32790;SDS011;19143;59.322;14.502;2023-07-13T05:45:32;9.90;;;2.87;;
32790;SDS011;19143;59.322;14.502;2023-07-13T05:47:58;3.17;;;2.03;;
32790;SDS011;19143;59.322;14.502;2023-07-13T05:50:25;5.63;;;2.30;;
32790;SDS011;19143;59.322;14.502;2023-07-13T05:52:52;6.13;;;2.17;;
32790;SDS011;19143;59.322;14.502;2023-07-13T05:55:19;8.23;;;2.40;;
32790;SDS011;19143;59.322;14.502;2023-07-13T05:57:46;4.53;;;2.37;;
32790;SDS011;19143;59.322;14.502;2023-07-13T06:00:13;7.53;;;2.30;;
32790;SDS011;19143;59.322;14.502;2023-07-13T06:02:41;10.23;;;2.50;;
32790;SDS011;19143;59.322;14.502;2023-07-13T06:05:08;7.53;;;2.43;;
32790;SDS011;19143;59.322;14.502;2023-07-13T06:07:34;5.93;;;2.30;;
32790;SDS011;19143;59.322;14.502;2023-07-13T06:10:01;5.13;;;2.17;;
32790;SDS011;19143;59.322;14.502;2023-07-13T06:12:28;7.27;;;2.17;;
32790;SDS011;19143;59.322;14.502;2023-07-13T06:14:54;6.27;;;2.30;;
32790;SDS011;19143;59.322;14.502;2023-07-13T06:17:21;10.27;;;2.53;;
32790;SDS011;19143;59.322;14.502;2023-07-13T06:19:49;9.10;;;2.70;;
32790;SDS011;19143;59.322;14.502;2023-07-13T06:22:16;4.40;;;2.30;;
32790;SDS011;19143;59.322;14.502;2023-07-13T06:24:42;8.10;;;2.27;;
32790;SDS011;19143;59.322;14.502;2023-07-13T06:27:09;8.70;;;2.70;;
32790;SDS011;19143;59.322;14.502;2023-07-13T06:29:36;4.10;;;2.10;;
32790;SDS011;19143;59.322;14.502;2023-07-13T06:32:03;6.97;;;2.47;;
32790;SDS011;19143;59.322;14.502;2023-07-13T06:34:30;11.97;;;2.50;;
32790;SDS011;19143;59.322;14.502;2023-07-13T06:36:58;6.33;;;2.07;;
32790;SDS011;19143;59.322;14.502;2023-07-13T06:39:24;6.93;;;2.30;;
32790;SDS011;19143;59.322;14.502;2023-07-13T06:41:51;4.43;;;2.50;;
32790;SDS011;19143;59.322;14.502;2023-07-13T06:44:18;6.87;;;2.40;;
32790;SDS011;19143;59.322;14.502;2023-07-13T06:46:44;6.17;;;2.20;;
32790;SDS011;19143;59.322;14.502;2023-07-13T06:49:11;10.10;;;2.37;;
32790;SDS011;19143;59.322;14.502;2023-07-13T06:51:37;6.17;;;2.60;;
32790;SDS011;19143;59.322;14.502;2023-07-13T06:54:06;8.27;;;2.47;;
32790;SDS011;19143;59.322;14.502;2023-07-13T06:56:32;7.07;;;2.37;;
32790;SDS011;19143;59.322;14.502;2023-07-13T06:58:59;9.50;;;2.77;;
32790;SDS011;19143;59.322;14.502;2023-07-13T07:01:26;9.30;;;2.50;;
32790;SDS011;19143;59.322;14.502;2023-07-13T07:03:52;7.57;;;2.50;;
32790;SDS011;19143;59.322;14.502;2023-07-13T07:06:20;5.83;;;2.47;;
32790;SDS011;19143;59.322;14.502;2023-07-13T07:08:48;10.93;;;2.63;;
32790;SDS011;19143;59.322;14.502;2023-07-13T07:11:20;5.17;;;2.00;;
32790;SDS011;19143;59.322;14.502;2023-07-13T07:13:48;6.37;;;2.53;;
32790;SDS011;19143;59.322;14.502;2023-07-13T07:16:15;4.93;;;2.50;;
32790;SDS011;19143;59.322;14.502;2023-07-13T07:18:42;10.67;;;2.20;;
32790;SDS011;19143;59.322;14.502;2023-07-13T07:21:09;10.30;;;2.53;;
32790;SDS011;19143;59.322;14.502;2023-07-13T07:23:36;3.73;;;2.10;;
32790;SDS011;19143;59.322;14.502;2023-07-13T07:26:03;8.53;;;2.50;;
32790;SDS011;19143;59.322;14.502;2023-07-13T07:28:32;5.80;;;2.00;;
32790;SDS011;19143;59.322;14.502;2023-07-13T07:30:58;5.37;;;2.00;;
32790;SDS011;19143;59.322;14.502;2023-07-13T07:33:25;4.10;;;1.73;;
32790;SDS011;19143;59.322;14.502;2023-07-13T07:35:51;7.23;;;2.10;;
32790;SDS011;19143;59.322;14.502;2023-07-13T07:38:18;2.70;;;2.20;;
32790;SDS011;19143;59.322;14.502;2023-07-13T07:40:45;2.93;;;1.80;;
32790;SDS011;19143;59.322;14.502;2023-07-13T07:43:12;9.50;;;3.00;;
32790;SDS011;19143;59.322;14.502;2023-07-13T07:45:40;7.53;;;1.90;;
32790;SDS011;19143;59.322;14.502;2023-07-13T07:48:07;5.70;;;1.90;;
32790;SDS011;19143;59.322;14.502;2023-07-13T07:50:34;5.87;;;1.90;;
32790;SDS011;19143;59.322;14.502;2023-07-13T07:53:01;2.43;;;1.90;;
32790;SDS011;19143;59.322;14.502;2023-07-13T07:55:28;5.90;;;2.20;;
32790;SDS011;19143;59.322;14.502;2023-07-13T07:57:56;5.40;;;1.87;;
32790;SDS011;19143;59.322;14.502;2023-07-13T08:00:23;2.87;;;2.00;;
32790;SDS011;19143;59.322;14.502;2023-07-13T08:02:51;5.23;;;2.30;;
32790;SDS011;19143;59.322;14.502;2023-07-13T08:05:17;5.47;;;2.00;;
32790;SDS011;19143;59.322;14.502;2023-07-13T08:07:45;4.77;;;1.80;;
32790;SDS011;19143;59.322;14.502;2023-07-13T08:10:12;2.10;;;1.80;;
32790;SDS011;19143;59.322;14.502;2023-07-13T08:12:40;7.73;;;2.00;;
32790;SDS011;19143;59.322;14.502;2023-07-13T08:15:09;6.60;;;2.07;;
32790;SDS011;19143;59.322;14.502;2023-07-13T08:17:36;4.33;;;1.80;;
32790;SDS011;19143;59.322;14.502;2023-07-13T08:20:05;4.60;;;1.80;;
32790;SDS011;19143;59.322;14.502;2023-07-13T08:22:32;8.90;;;1.87;;
32790;SDS011;19143;59.322;14.502;2023-07-13T08:24:59;5.43;;;1.90;;
32790;SDS011;19143;59.322;14.502;2023-07-13T08:27:28;7.43;;;2.00;;
32790;SDS011;19143;59.322;14.502;2023-07-13T08:29:55;2.07;;;1.63;;
32790;SDS011;19143;59.322;14.502;2023-07-13T08:32:22;2.93;;;1.70;;
32790;SDS011;19143;59.322;14.502;2023-07-13T08:34:49;8.07;;;2.20;;
32790;SDS011;19143;59.322;14.502;2023-07-13T08:37:18;4.77;;;1.70;;
32790;SDS011;19143;59.322;14.502;2023-07-13T08:39:45;6.13;;;2.17;;
32790;SDS011;19143;59.322;14.502;2023-07-13T08:42:16;6.10;;;1.80;;
32790;SDS011;19143;59.322;14.502;2023-07-13T08:44:47;12.30;;;3.00;;
32790;SDS011;19143;59.322;14.502;2023-07-13T08:47:17;6.33;;;1.73;;
32790;SDS011;19143;59.322;14.502;2023-07-13T08:49:48;2.10;;;1.63;;
32790;SDS011;19143;59.322;14.502;2023-07-13T08:52:16;4.63;;;1.60;;
32790;SDS011;19143;59.322;14.502;2023-07-13T08:54:45;1.60;;;1.40;;
32790;SDS011;19143;59.322;14.502;2023-07-13T08:57:14;6.40;;;2.03;;
32790;SDS011;19143;59.322;14.502;2023-07-13T08:59:42;5.27;;;2.00;;
32790;SDS011;19143;59.322;14.502;2023-07-13T09:02:20;2.60;;;1.90;;
32790;SDS011;19143;59.322;14.502;2023-07-13T09:04:50;6.70;;;1.90;;
32790;SDS011;19143;59.322;14.502;2023-07-13T09:07:19;4.30;;;1.90;;
32790;SDS011;19143;59.322;14.502;2023-07-13T09:09:53;1.83;;;1.70;;
32790;SDS011;19143;59.322;14.502;2023-07-13T09:12:23;6.13;;;1.87;;
32790;SDS011;19143;59.322;14.502;2023-07-13T09:14:51;5.70;;;1.73;;
32790;SDS011;19143;59.322;14.502;2023-07-13T09:17:20;5.23;;;1.80;;
32790;SDS011;19143;59.322;14.502;2023-07-13T09:19:49;6.43;;;2.40;;
32790;SDS011;19143;59.322;14.502;2023-07-13T09:22:20;5.87;;;2.07;;
32790;SDS011;19143;59.322;14.502;2023-07-13T09:24:52;6.30;;;2.00;;
32790;SDS011;19143;59.322;14.502;2023-07-13T09:27:23;3.47;;;1.67;;
32790;SDS011;19143;59.322;14.502;2023-07-13T09:29:51;1.60;;;1.50;;
32790;SDS011;19143;59.322;14.502;2023-07-13T09:32:21;6.97;;;1.90;;
32790;SDS011;19143;59.322;14.502;2023-07-13T09:34:50;8.50;;;2.00;;
32790;SDS011;19143;59.322;14.502;2023-07-13T09:37:16;5.27;;;1.73;;
32790;SDS011;19143;59.322;14.502;2023-07-13T09:39:44;5.33;;;1.73;;
32790;SDS011;19143;59.322;14.502;2023-07-13T09:42:14;4.80;;;2.00;;
32790;SDS011;19143;59.322;14.502;2023-07-13T09:44:44;7.77;;;1.93;;
32790;SDS011;19143;59.322;14.502;2023-07-13T09:47:16;4.70;;;1.90;;
32790;SDS011;19143;59.322;14.502;2023-07-13T09:49:43;4.53;;;1.80;;
32790;SDS011;19143;59.322;14.502;2023-07-13T09:52:11;7.47;;;1.77;;
32790;SDS011;19143;59.322;14.502;2023-07-13T09:54:39;5.17;;;1.67;;
32790;SDS011;19143;59.322;14.502;2023-07-13T09:57:13;3.70;;;1.40;;
32790;SDS011;19143;59.322;14.502;2023-07-13T09:59:41;1.63;;;1.50;;
32790;SDS011;19143;59.322;14.502;2023-07-13T10:04:55;2.30;;;1.47;;
32790;SDS011;19143;59.322;14.502;2023-07-13T10:07:37;1.70;;;1.40;;
32790;SDS011;19143;59.322;14.502;2023-07-13T10:10:12;2.30;;;1.30;;
32790;SDS011;19143;59.322;14.502;2023-07-13T10:12:41;2.10;;;1.53;;
32790;SDS011;19143;59.322;14.502;2023-07-13T10:15:13;2.80;;;1.90;;
32790;SDS011;19143;59.322;14.502;2023-07-13T10:17:41;3.07;;;1.60;;
32790;SDS011;19143;59.322;14.502;2023-07-13T10:20:09;1.80;;;1.30;;
32790;SDS011;19143;59.322;14.502;2023-07-13T10:22:39;2.13;;;1.37;;
32790;SDS011;19143;59.322;14.502;2023-07-13T10:25:15;5.13;;;1.30;;
32790;SDS011;19143;59.322;14.502;2023-07-13T10:27:45;5.50;;;1.40;;
32790;SDS011;19143;59.322;14.502;2023-07-13T10:30:13;2.23;;;1.57;;
32790;SDS011;19143;59.322;14.502;2023-07-13T10:32:42;2.50;;;1.43;;
32790;SDS011;19143;59.322;14.502;2023-07-13T10:35:10;5.37;;;1.60;;
32790;SDS011;19143;59.322;14.502;2023-07-13T10:37:39;2.07;;;1.40;;
32790;SDS011;19143;59.322;14.502;2023-07-13T10:40:11;1.73;;;1.27;;
32790;SDS011;19143;59.322;14.502;2023-07-13T10:42:39;1.30;;;1.20;;
32790;SDS011;19143;59.322;14.502;2023-07-13T10:45:13;3.60;;;1.20;;
32790;SDS011;19143;59.322;14.502;2023-07-13T10:47:41;1.93;;;1.37;;
32790;SDS011;19143;59.322;14.502;2023-07-13T10:50:09;1.70;;;1.10;;
32790;SDS011;19143;59.322;14.502;2023-07-13T10:52:42;3.10;;;1.10;;
32790;SDS011;19143;59.322;14.502;2023-07-13T10:55:30;1.47;;;1.10;;
32790;SDS011;19143;59.322;14.502;2023-07-13T10:57:59;1.97;;;1.57;;
32790;SDS011;19143;59.322;14.502;2023-07-13T11:00:30;1.50;;;1.40;;
32790;SDS011;19143;59.322;14.502;2023-07-13T11:03:03;2.43;;;1.40;;
32790;SDS011;19143;59.322;14.502;2023-07-13T11:08:50;3.43;;;1.30;;
32790;SDS011;19143;59.322;14.502;2023-07-13T11:11:45;1.93;;;1.20;;
32790;SDS011;19143;59.322;14.502;2023-07-13T11:14:29;2.17;;;1.23;;
32790;SDS011;19143;59.322;14.502;2023-07-13T11:16:58;1.87;;;1.10;;
32790;SDS011;19143;59.322;14.502;2023-07-13T11:22:11;1.57;;;1.10;;
32790;SDS011;19143;59.322;14.502;2023-07-13T11:24:49;4.93;;;1.20;;
32790;SDS011;19143;59.322;14.502;2023-07-13T11:27:21;2.77;;;1.20;;
32790;SDS011;19143;59.322;14.502;2023-07-13T11:29:48;6.23;;;1.50;;
32790;SDS011;19143;59.322;14.502;2023-07-13T11:32:24;1.20;;;1.10;;
32790;SDS011;19143;59.322;14.502;2023-07-13T11:34:51;10.27;;;1.27;;
32790;SDS011;19143;59.322;14.502;2023-07-13T11:37:19;2.83;;;1.07;;
32790;SDS011;19143;59.322;14.502;2023-07-13T11:39:46;2.43;;;1.30;;
32790;SDS011;19143;59.322;14.502;2023-07-13T11:42:15;4.63;;;1.20;;
32790;SDS011;19143;59.322;14.502;2023-07-13T11:44:43;1.77;;;1.10;;
32790;SDS011;19143;59.322;14.502;2023-07-13T11:47:11;3.90;;;1.00;;
32790;SDS011;19143;59.322;14.502;2023-07-13T11:49:42;1.73;;;1.23;;
32790;SDS011;19143;59.322;14.502;2023-07-13T11:52:10;3.33;;;1.10;;
32790;SDS011;19143;59.322;14.502;2023-07-13T11:54:43;3.93;;;1.50;;
32790;SDS011;19143;59.322;14.502;2023-07-13T11:57:20;1.00;;;1.00;;
32790;SDS011;19143;59.322;14.502;2023-07-13T12:00:10;1.33;;;1.20;;
32790;SDS011;19143;59.322;14.502;2023-07-13T12:02:40;1.23;;;1.17;;
32790;SDS011;19143;59.322;14.502;2023-07-13T12:05:11;1.10;;;1.00;;
32790;SDS011;19143;59.322;14.502;2023-07-13T12:07:39;2.40;;;1.20;;
32790;SDS011;19143;59.322;14.502;2023-07-13T12:10:15;4.23;;;1.20;;
32790;SDS011;19143;59.322;14.502;2023-07-13T13:02:01;4.43;;;1.10;;
32790;SDS011;19143;59.322;14.502;2023-07-13T13:07:19;1.20;;;1.10;;
32790;SDS011;19143;59.322;14.502;2023-07-13T13:09:46;3.43;;;1.07;;
32790;SDS011;19143;59.322;14.502;2023-07-13T13:22:51;2.67;;;1.27;;
32790;SDS011;19143;59.322;14.502;2023-07-13T13:41:04;5.20;;;1.30;;
32790;SDS011;19143;59.322;14.502;2023-07-13T13:43:31;1.70;;;1.30;;
32790;SDS011;19143;59.322;14.502;2023-07-13T13:45:59;4.33;;;1.20;;
32790;SDS011;19143;59.322;14.502;2023-07-13T13:48:26;1.33;;;0.90;;
32790;SDS011;19143;59.322;14.502;2023-07-13T13:50:56;5.47;;;1.30;;
32790;SDS011;19143;59.322;14.502;2023-07-13T13:53:33;1.67;;;1.13;;
32790;SDS011;19143;59.322;14.502;2023-07-13T14:08:29;1.97;;;1.07;;
32790;SDS011;19143;59.322;14.502;2023-07-13T14:10:57;1.90;;;1.00;;
32790;SDS011;19143;59.322;14.502;2023-07-13T14:13:25;2.10;;;1.20;;
32790;SDS011;19143;59.322;14.502;2023-07-13T14:18:33;1.53;;;1.30;;
32790;SDS011;19143;59.322;14.502;2023-07-13T14:21:21;1.60;;;1.03;;
32790;SDS011;19143;59.322;14.502;2023-07-13T14:57:25;1.20;;;1.10;;
32790;SDS011;19143;59.322;14.502;2023-07-13T14:59:55;2.27;;;1.20;;
32790;SDS011;19143;59.322;14.502;2023-07-13T15:02:24;4.40;;;1.17;;
32790;SDS011;19143;59.322;14.502;2023-07-13T15:05:05;3.43;;;1.40;;
32790;SDS011;19143;59.322;14.502;2023-07-13T15:07:42;3.53;;;1.10;;
32790;SDS011;19143;59.322;14.502;2023-07-13T15:10:14;2.30;;;1.20;;
32790;SDS011;19143;59.322;14.502;2023-07-13T15:12:42;5.53;;;1.27;;
32790;SDS011;19143;59.322;14.502;2023-07-13T15:15:10;2.00;;;1.07;;
32790;SDS011;19143;59.322;14.502;2023-07-13T15:17:40;4.77;;;1.30;;
32790;SDS011;19143;59.322;14.502;2023-07-13T15:20:35;2.10;;;1.10;;
32790;SDS011;19143;59.322;14.502;2023-07-13T15:40:10;0.90;;;0.90;;
32790;SDS011;19143;59.322;14.502;2023-07-13T15:42:38;2.07;;;0.90;;
32790;SDS011;19143;59.322;14.502;2023-07-13T15:45:13;3.87;;;1.30;;
32790;SDS011;19143;59.322;14.502;2023-07-13T15:47:57;1.43;;;1.00;;
32790;SDS011;19143;59.322;14.502;2023-07-13T15:50:30;3.20;;;1.00;;
32790;SDS011;19143;59.322;14.502;2023-07-13T15:56:16;1.57;;;1.10;;
32790;SDS011;19143;59.322;14.502;2023-07-13T15:58:45;0.93;;;0.93;;
32790;SDS011;19143;59.322;14.502;2023-07-13T16:04:02;0.90;;;0.80;;
32790;SDS011;19143;59.322;14.502;2023-07-13T16:06:48;1.10;;;0.80;;
32790;SDS011;19143;59.322;14.502;2023-07-13T16:09:30;3.40;;;1.17;;
32790;SDS011;19143;59.322;14.502;2023-07-13T16:22:44;1.53;;;1.20;;
32790;SDS011;19143;59.322;14.502;2023-07-13T16:27:57;2.43;;;0.90;;
32790;SDS011;19143;59.322;14.502;2023-07-13T16:30:58;1.20;;;1.00;;
32790;SDS011;19143;59.322;14.502;2023-07-13T16:37:21;1.60;;;0.90;;
32790;SDS011;19143;59.322;14.502;2023-07-13T16:43:05;1.30;;;0.90;;
32790;SDS011;19143;59.322;14.502;2023-07-13T16:45:32;4.80;;;1.20;;
32790;SDS011;19143;59.322;14.502;2023-07-13T16:53:35;1.10;;;1.00;;
32790;SDS011;19143;59.322;14.502;2023-07-13T16:56:13;0.70;;;0.70;;
32790;SDS011;19143;59.322;14.502;2023-07-13T17:02:04;0.90;;;0.90;;
32790;SDS011;19143;59.322;14.502;2023-07-13T17:04:42;1.90;;;0.90;;
32790;SDS011;19143;59.322;14.502;2023-07-13T17:07:11;1.07;;;0.67;;
32790;SDS011;19143;59.322;14.502;2023-07-13T17:09:39;1.70;;;1.10;;
32790;SDS011;19143;59.322;14.502;2023-07-13T17:12:26;0.80;;;0.80;;
32790;SDS011;19143;59.322;14.502;2023-07-13T17:15:09;1.20;;;0.87;;
32790;SDS011;19143;59.322;14.502;2023-07-13T17:17:48;2.13;;;0.90;;
32790;SDS011;19143;59.322;14.502;2023-07-13T17:20:29;8.17;;;0.90;;
32790;SDS011;19143;59.322;14.502;2023-07-13T17:26:04;6.90;;;1.20;;
32790;SDS011;19143;59.322;14.502;2023-07-13T17:28:44;1.70;;;1.17;;
32790;SDS011;19143;59.322;14.502;2023-07-13T17:31:27;3.03;;;1.03;;
32790;SDS011;19143;59.322;14.502;2023-07-13T17:34:13;1.53;;;0.97;;
32790;SDS011;19143;59.322;14.502;2023-07-13T17:36:53;1.07;;;0.90;;
32790;SDS011;19143;59.322;14.502;2023-07-13T17:39:36;1.00;;;1.00;;
32790;SDS011;19143;59.322;14.502;2023-07-13T17:42:05;0.80;;;0.80;;
32790;SDS011;19143;59.322;14.502;2023-07-13T17:44:55;1.03;;;1.03;;
32790;SDS011;19143;59.322;14.502;2023-07-13T18:05:13;5.63;;;1.10;;
32790;SDS011;19143;59.322;14.502;2023-07-13T18:07:59;7.27;;;1.50;;
32790;SDS011;19143;59.322;14.502;2023-07-13T18:10:37;2.93;;;1.20;;
32790;SDS011;19143;59.322;14.502;2023-07-13T18:13:18;2.97;;;1.30;;
32790;SDS011;19143;59.322;14.502;2023-07-13T18:15:47;1.73;;;1.10;;
32790;SDS011;19143;59.322;14.502;2023-07-13T18:18:15;3.03;;;1.30;;
32790;SDS011;19143;59.322;14.502;2023-07-13T18:35:31;2.87;;;1.20;;
32790;SDS011;19143;59.322;14.502;2023-07-13T18:38:15;1.47;;;1.47;;
32790;SDS011;19143;59.322;14.502;2023-07-13T18:40:55;3.20;;;1.47;;
32790;SDS011;19143;59.322;14.502;2023-07-13T18:48:55;2.63;;;1.70;;
32790;SDS011;19143;59.322;14.502;2023-07-13T19:03:10;2.53;;;1.80;;
32790;SDS011;19143;59.322;14.502;2023-07-13T19:05:39;2.53;;;1.70;;
32790;SDS011;19143;59.322;14.502;2023-07-13T19:08:09;5.43;;;1.80;;
32790;SDS011;19143;59.322;14.502;2023-07-13T19:10:41;1.77;;;1.53;;